createdAt,value
2018-07-19T00:00:22.767Z,3.62
2018-07-19T00:00:56.328Z,3.60
2018-07-19T00:01:29.968Z,3.53
2018-07-19T00:02:04.127Z,3.47
2018-07-19T00:02:38.224Z,3.60
2018-07-19T00:03:11.856Z,4.20
2018-07-19T00:03:46.644Z,3.58
2018-07-19T00:04:20.195Z,4.65
2018-07-19T00:04:53.428Z,4.75
2018-07-19T00:05:27.012Z,3.93
2018-07-19T00:06:01.682Z,4.08
2018-07-19T00:06:35.898Z,3.85
2018-07-19T00:07:09.527Z,3.62
2018-07-19T00:07:43.688Z,3.92
2018-07-19T00:08:17.281Z,4.10
2018-07-19T00:08:51.723Z,3.98
2018-07-19T00:09:26.126Z,4.13
2018-07-19T00:09:59.719Z,3.65
2018-07-19T00:10:33.284Z,3.75
2018-07-19T00:11:07.336Z,3.70
2018-07-19T00:11:40.856Z,4.00
2018-07-19T00:12:15.256Z,4.17
2018-07-19T00:12:48.841Z,4.15
2018-07-19T00:13:22.747Z,3.67
2018-07-19T00:13:56.263Z,3.70
2018-07-19T00:14:30.413Z,4.10
2018-07-19T00:15:03.720Z,3.95
2018-07-19T00:15:37.323Z,3.40
2018-07-19T00:16:11.230Z,4.22
2018-07-19T00:16:44.789Z,3.85
2018-07-19T00:17:19.034Z,3.80
2018-07-19T00:17:53.262Z,3.77
2018-07-19T00:18:27.730Z,3.67
2018-07-19T00:19:01.320Z,3.72
2018-07-19T00:19:34.877Z,3.83
2018-07-19T00:20:08.495Z,3.40
2018-07-19T00:20:42.023Z,3.98
2018-07-19T00:21:16.196Z,3.40
2018-07-19T00:21:49.747Z,3.50
2018-07-19T00:22:23.687Z,3.55
2018-07-19T00:22:57.270Z,3.47
2018-07-19T00:23:30.880Z,3.37
2018-07-19T00:24:04.142Z,3.80
2018-07-19T00:24:37.707Z,3.80
2018-07-19T00:25:11.631Z,3.40
2018-07-19T00:25:45.248Z,3.70
2018-07-19T00:26:18.843Z,3.70
2018-07-19T00:26:52.412Z,3.45
2018-07-19T00:27:27.011Z,3.40
2018-07-19T00:28:00.557Z,3.72
2018-07-19T00:28:35.083Z,3.95
2018-07-19T00:29:08.660Z,3.37
2018-07-19T00:29:42.416Z,3.67
2018-07-19T00:30:15.972Z,3.55
2018-07-19T00:30:49.500Z,3.50
2018-07-19T00:31:23.091Z,3.17
2018-07-19T00:31:56.636Z,3.45
2018-07-19T00:32:30.953Z,3.80
2018-07-19T00:33:04.555Z,3.40
2018-07-19T00:33:38.161Z,3.40
2018-07-19T00:34:12.361Z,3.72
2018-07-19T00:34:45.899Z,4.42
2018-07-19T00:35:19.476Z,3.90
2018-07-19T00:35:53.567Z,4.20
2018-07-19T00:36:27.119Z,3.65
2018-07-19T00:37:00.677Z,3.87
2018-07-19T00:37:33.969Z,4.28
2018-07-19T00:38:07.614Z,4.30
2018-07-19T00:38:41.139Z,3.85
2018-07-19T00:39:14.682Z,3.85
2018-07-19T00:39:48.199Z,3.95
2018-07-19T00:40:22.397Z,3.33
2018-07-19T00:40:55.972Z,4.05
2018-07-19T00:41:29.592Z,4.10
2018-07-19T00:42:03.224Z,3.40
2018-07-19T00:42:38.214Z,3.75
2018-07-19T00:43:12.644Z,3.40
2018-07-19T00:43:46.211Z,3.80
2018-07-19T00:44:19.795Z,4.22
2018-07-19T00:44:53.344Z,4.20
2018-07-19T00:45:26.972Z,4.30
2018-07-19T00:46:00.623Z,4.12
2018-07-19T00:46:34.288Z,3.75
2018-07-19T00:47:07.860Z,4.20
2018-07-19T00:47:41.441Z,3.77
2018-07-19T00:48:14.954Z,4.37
2018-07-19T00:48:48.508Z,4.10
2018-07-19T00:49:22.069Z,4.00
2018-07-19T00:49:55.658Z,4.35
2018-07-19T00:50:29.278Z,4.00
2018-07-19T00:51:02.948Z,4.08
2018-07-19T00:51:37.181Z,4.22
2018-07-19T00:52:11.152Z,3.87
2018-07-19T00:52:45.356Z,3.62
2018-07-19T00:53:18.886Z,4.00
2018-07-19T00:53:52.445Z,4.25
2018-07-19T00:54:26.051Z,3.85
2018-07-19T00:54:59.646Z,3.47
2018-07-19T00:55:33.626Z,3.70
2018-07-19T00:56:07.255Z,3.87
2018-07-19T00:56:41.339Z,4.05
2018-07-19T00:57:14.946Z,3.62
2018-07-19T00:57:49.473Z,3.77
2018-07-19T00:58:23.072Z,4.55
2018-07-19T00:58:56.627Z,3.80
2018-07-19T00:59:30.368Z,3.67
2018-07-19T01:00:04.765Z,3.90
2018-07-19T01:00:38.428Z,3.62
2018-07-19T01:01:11.659Z,3.72
2018-07-19T01:01:45.231Z,3.75
2018-07-19T01:02:18.824Z,3.58
2018-07-19T01:02:54.278Z,3.85
2018-07-19T01:03:27.855Z,3.60
2018-07-19T01:04:01.407Z,4.17
2018-07-19T01:04:35.035Z,3.70
2018-07-19T01:05:08.761Z,4.03
2018-07-19T01:05:42.345Z,3.67
2018-07-19T01:06:15.996Z,3.90
2018-07-19T01:06:49.549Z,3.37
2018-07-19T01:07:23.131Z,4.28
2018-07-19T01:07:56.706Z,3.70
2018-07-19T01:08:30.676Z,4.25
2018-07-19T01:09:06.726Z,4.28
2018-07-19T01:09:40.304Z,3.95
2018-07-19T01:10:14.539Z,3.47
2018-07-19T01:10:47.840Z,4.22
2018-07-19T01:11:21.578Z,3.73
2018-07-19T01:11:55.198Z,3.50
2018-07-19T01:12:28.824Z,3.80
2018-07-19T01:13:02.336Z,3.70
2018-07-19T01:13:35.920Z,3.87
2018-07-19T01:14:09.997Z,3.80
2018-07-19T01:14:44.247Z,3.70
2018-07-19T01:15:17.862Z,3.70
2018-07-19T01:15:52.056Z,3.42
2018-07-19T01:16:25.677Z,3.75
2018-07-19T01:16:59.331Z,3.90
2018-07-19T01:17:32.873Z,3.90
2018-07-19T01:18:06.487Z,3.60
2018-07-19T01:18:40.069Z,3.65
2018-07-19T01:19:13.721Z,3.92
2018-07-19T01:19:47.366Z,4.00
2018-07-19T01:20:20.904Z,3.90
2018-07-19T01:20:54.480Z,3.60
2018-07-19T01:21:28.062Z,3.90
2018-07-19T01:22:01.741Z,3.98
2018-07-19T01:22:35.335Z,4.10
2018-07-19T01:23:08.936Z,3.80
2018-07-19T01:23:42.624Z,3.58
2018-07-19T01:24:16.242Z,3.92
2018-07-19T01:24:49.816Z,3.70
2018-07-19T01:25:23.441Z,3.60
2018-07-19T01:25:56.982Z,3.58
2018-07-19T01:26:30.522Z,4.05
2018-07-19T01:27:03.733Z,3.85
2018-07-19T01:27:37.637Z,3.65
2018-07-19T01:28:11.242Z,3.72
2018-07-19T01:28:44.770Z,3.87
2018-07-19T01:29:18.347Z,4.00
2018-07-19T01:29:51.942Z,3.60
2018-07-19T01:30:25.530Z,4.15
2018-07-19T01:30:58.788Z,3.77
2018-07-19T01:31:32.340Z,4.00
2018-07-19T01:32:06.005Z,4.17
2018-07-19T01:32:39.572Z,3.45
2018-07-19T01:33:13.167Z,3.98
2018-07-19T01:33:47.463Z,4.20
2018-07-19T01:34:21.569Z,3.67
2018-07-19T01:34:55.108Z,3.90
2018-07-19T01:35:28.704Z,3.67
2018-07-19T01:36:02.007Z,4.03
2018-07-19T01:36:36.469Z,3.55
2018-07-19T01:37:10.077Z,3.80
2018-07-19T01:37:43.635Z,3.70
2018-07-19T01:38:17.220Z,3.60
2018-07-19T01:38:50.817Z,3.45
2018-07-19T01:39:24.394Z,3.80
2018-07-19T01:39:59.885Z,3.80
2018-07-19T01:40:33.451Z,3.83
2018-07-19T01:41:18.252Z,3.90
2018-07-19T01:42:29.215Z,3.52
2018-07-19T01:43:02.735Z,3.87
2018-07-19T01:43:36.334Z,3.77
2018-07-19T01:44:09.942Z,3.92
2018-07-19T01:44:43.738Z,4.08
2018-07-19T01:45:17.284Z,4.07
2018-07-19T01:45:50.888Z,3.77
2018-07-19T01:46:24.443Z,3.67
2018-07-19T01:46:58.927Z,3.65
2018-07-19T01:47:32.498Z,4.28
2018-07-19T01:48:06.553Z,3.83
2018-07-19T01:48:40.134Z,3.70
2018-07-19T01:49:13.744Z,3.55
2018-07-19T01:49:47.740Z,3.77
2018-07-19T01:50:21.831Z,4.30
2018-07-19T01:50:55.384Z,3.75
2018-07-19T01:51:29.010Z,3.60
2018-07-19T01:52:02.587Z,3.67
2018-07-19T01:52:36.173Z,3.55
2018-07-19T01:53:09.778Z,3.98
2018-07-19T01:53:44.062Z,3.98
2018-07-19T01:54:19.004Z,4.15
2018-07-19T01:54:53.155Z,3.95
2018-07-19T01:55:26.692Z,3.87
2018-07-19T01:56:01.867Z,3.70
2018-07-19T01:56:35.389Z,3.50
2018-07-19T01:57:10.597Z,3.98
2018-07-19T01:57:44.390Z,3.52
2018-07-19T01:58:17.998Z,3.72
2018-07-19T01:58:51.602Z,3.87
2018-07-19T01:59:25.143Z,3.70
2018-07-19T01:59:58.777Z,4.08
2018-07-19T02:00:32.330Z,3.60
2018-07-19T02:01:06.708Z,3.58
2018-07-19T02:01:40.292Z,4.15
2018-07-19T02:02:14.294Z,4.00
2018-07-19T02:02:47.839Z,3.90
2018-07-19T02:03:21.976Z,3.97
2018-07-19T02:03:55.593Z,3.35
2018-07-19T02:04:29.171Z,3.30
2018-07-19T02:05:03.741Z,3.42
2018-07-19T02:05:37.327Z,3.90
2018-07-19T02:06:11.004Z,4.20
2018-07-19T02:06:44.568Z,3.30
2018-07-19T02:07:18.224Z,3.52
2018-07-19T02:07:51.828Z,3.90
2018-07-19T02:08:25.477Z,3.70
2018-07-19T02:08:59.088Z,3.72
2018-07-19T02:09:32.957Z,4.00
2018-07-19T02:10:06.667Z,3.98
2018-07-19T02:10:40.257Z,3.10
2018-07-19T02:11:14.456Z,3.90
2018-07-19T02:11:48.808Z,3.98
2018-07-19T02:12:22.441Z,3.60
2018-07-19T02:12:56.122Z,3.58
2018-07-19T02:13:29.746Z,3.90
2018-07-19T02:14:03.338Z,3.95
2018-07-19T02:14:36.950Z,3.70
2018-07-19T02:15:11.400Z,3.72
2018-07-19T02:15:45.995Z,3.67
2018-07-19T02:16:20.044Z,3.60
2018-07-19T02:16:53.790Z,3.45
2018-07-19T02:17:27.432Z,3.40
2018-07-19T02:18:01.498Z,3.70
2018-07-19T02:18:36.202Z,3.58
2018-07-19T02:19:10.041Z,3.85
2018-07-19T02:19:43.621Z,3.85
2018-07-19T02:20:17.775Z,4.03
2018-07-19T02:20:51.359Z,3.70
2018-07-19T02:21:24.912Z,3.30
2018-07-19T02:21:58.573Z,4.12
2018-07-19T02:22:32.118Z,3.65
2018-07-19T02:23:06.384Z,3.27
2018-07-19T02:23:39.972Z,3.30
2018-07-19T02:24:13.572Z,3.62
2018-07-19T02:24:47.126Z,3.85
2018-07-19T02:25:20.699Z,3.37
2018-07-19T02:25:54.791Z,3.60
2018-07-19T02:26:28.982Z,3.90
2018-07-19T02:27:02.605Z,3.42
2018-07-19T02:27:36.954Z,3.77
2018-07-19T02:28:10.508Z,3.37
2018-07-19T02:28:44.126Z,3.45
2018-07-19T02:29:17.791Z,3.70
2018-07-19T02:29:51.415Z,3.75
2018-07-19T02:30:24.994Z,3.58
2018-07-19T02:30:59.348Z,3.83
2018-07-19T02:31:32.995Z,4.12
2018-07-19T02:32:06.789Z,3.75
2018-07-19T02:32:40.378Z,4.20
2018-07-19T02:33:15.484Z,3.75
2018-07-19T02:33:49.095Z,3.42
2018-07-19T02:34:23.676Z,3.72
2018-07-19T02:34:57.880Z,3.72
2018-07-19T02:35:31.486Z,3.75
2018-07-19T02:36:05.084Z,3.80
2018-07-19T02:36:39.357Z,3.65
2018-07-19T02:37:12.921Z,3.75
2018-07-19T02:37:46.564Z,3.72
2018-07-19T02:38:20.215Z,3.50
2018-07-19T02:38:53.782Z,3.52
2018-07-19T02:39:27.345Z,4.33
2018-07-19T02:40:01.047Z,3.70
2018-07-19T02:40:34.572Z,3.92
2018-07-19T02:41:08.243Z,3.80
2018-07-19T02:41:42.055Z,4.00
2018-07-19T02:42:15.769Z,4.08
2018-07-19T02:42:50.628Z,3.50
2018-07-19T02:43:24.820Z,3.45
2018-07-19T02:43:58.379Z,3.70
2018-07-19T02:44:31.935Z,4.05
2018-07-19T02:45:06.148Z,3.83
2018-07-19T02:45:39.791Z,4.33
2018-07-19T02:46:13.662Z,3.95
2018-07-19T02:46:47.228Z,3.85
2018-07-19T02:47:20.849Z,4.40
2018-07-19T02:47:55.044Z,4.05
2018-07-19T02:48:28.657Z,3.77
2018-07-19T02:49:02.294Z,4.00
2018-07-19T02:49:35.944Z,4.00
2018-07-19T02:50:09.608Z,4.25
2018-07-19T02:50:42.869Z,3.98
2018-07-19T02:51:16.451Z,3.65
2018-07-19T02:51:50.026Z,4.50
2018-07-19T02:52:24.628Z,4.12
2018-07-19T02:52:58.804Z,4.10
2018-07-19T02:53:32.388Z,3.80
2018-07-19T02:54:06.048Z,4.45
2018-07-19T02:54:40.485Z,3.62
2018-07-19T02:55:14.012Z,4.08
2018-07-19T02:55:47.635Z,4.30
2018-07-19T02:56:21.244Z,4.20
2018-07-19T02:56:55.816Z,4.03
2018-07-19T02:57:29.388Z,4.10
2018-07-19T02:58:02.973Z,3.95
2018-07-19T02:58:36.942Z,3.95
2018-07-19T02:59:10.528Z,3.50
2018-07-19T02:59:44.116Z,4.20
2018-07-19T03:00:17.735Z,3.80
2018-07-19T03:00:51.306Z,4.05
2018-07-19T03:01:24.963Z,4.53
2018-07-19T03:01:58.544Z,3.95
2018-07-19T03:02:32.105Z,4.17
2018-07-19T03:03:05.664Z,4.28
2018-07-19T03:03:39.331Z,3.92
2018-07-19T03:04:12.950Z,4.28
2018-07-19T03:04:46.601Z,3.92
2018-07-19T03:05:20.086Z,4.47
2018-07-19T03:05:54.459Z,4.00
2018-07-19T03:06:28.077Z,4.12
2018-07-19T03:07:01.631Z,3.55
2018-07-19T03:07:35.231Z,3.75
2018-07-19T03:08:09.222Z,4.05
2018-07-19T03:08:42.853Z,3.65
2018-07-19T03:09:16.460Z,4.00
2018-07-19T03:09:50.059Z,4.00
2018-07-19T03:10:24.068Z,3.70
2018-07-19T03:10:57.672Z,3.70
2018-07-19T03:11:31.852Z,4.20
2018-07-19T03:12:05.465Z,4.45
2018-07-19T03:12:39.009Z,4.17
2018-07-19T03:13:12.741Z,3.92
2018-07-19T03:13:46.261Z,4.65
2018-07-19T03:14:20.601Z,3.85
2018-07-19T03:14:55.995Z,3.95
2018-07-19T03:15:29.615Z,4.30
2018-07-19T03:16:03.259Z,4.22
2018-07-19T03:16:36.842Z,3.70
2018-07-19T03:17:11.205Z,3.87
2018-07-19T03:17:44.760Z,3.90
2018-07-19T03:18:18.396Z,4.20
2018-07-19T03:18:52.540Z,4.22
2018-07-19T03:19:26.710Z,4.37
2018-07-19T03:20:00.350Z,3.85
2018-07-19T03:20:33.899Z,3.67
2018-07-19T03:21:07.791Z,3.90
2018-07-19T03:21:41.497Z,4.03
2018-07-19T03:22:15.128Z,4.37
2018-07-19T03:22:50.132Z,4.37
2018-07-19T03:23:23.746Z,4.43
2018-07-19T03:23:57.314Z,4.25
2018-07-19T03:24:30.896Z,4.30
2018-07-19T03:25:04.678Z,3.80
2018-07-19T03:25:38.578Z,4.80
2018-07-19T03:26:13.005Z,4.28
2018-07-19T03:26:47.741Z,4.20
2018-07-19T03:27:21.316Z,4.03
2018-07-19T03:27:54.852Z,4.03
2018-07-19T03:28:28.455Z,3.60
2018-07-19T03:29:02.841Z,3.60
2018-07-19T03:29:36.394Z,4.20
2018-07-19T03:30:09.996Z,4.28
2018-07-19T03:30:44.330Z,4.42
2018-07-19T03:31:17.945Z,4.47
2018-07-19T03:31:51.612Z,3.95
2018-07-19T03:32:25.104Z,3.92
2018-07-19T03:32:58.693Z,4.45
2018-07-19T03:33:32.227Z,4.22
2018-07-19T03:34:05.795Z,4.30
2018-07-19T03:34:39.331Z,4.12
2018-07-19T03:35:13.277Z,4.28
2018-07-19T03:35:46.879Z,4.42
2018-07-19T03:36:20.469Z,3.92
2018-07-19T03:36:54.105Z,4.15
2018-07-19T03:37:27.771Z,4.20
2018-07-19T03:38:01.397Z,4.00
2018-07-19T03:38:34.956Z,4.05
2018-07-19T03:39:10.721Z,4.25
2018-07-19T03:39:44.284Z,4.35
2018-07-19T03:40:17.910Z,3.87
2018-07-19T03:40:51.509Z,4.35
2018-07-19T03:41:26.020Z,3.43
2018-07-19T03:41:59.708Z,4.25
2018-07-19T03:42:33.277Z,4.33
2018-07-19T03:43:06.951Z,3.90
2018-07-19T03:43:40.477Z,4.30
2018-07-19T03:44:14.075Z,4.25
2018-07-19T03:44:47.684Z,4.08
2018-07-19T03:45:21.229Z,3.93
2018-07-19T03:45:55.500Z,3.87
2018-07-19T03:46:29.002Z,4.10
2018-07-19T03:47:02.553Z,4.08
2018-07-19T03:47:36.152Z,4.12
2018-07-19T03:48:09.787Z,3.77
2018-07-19T03:48:43.362Z,3.83
2018-07-19T03:49:16.932Z,4.05
2018-07-19T03:49:51.112Z,4.33
2018-07-19T03:50:24.756Z,4.83
2018-07-19T03:50:58.332Z,4.25
2018-07-19T03:51:31.932Z,4.35
2018-07-19T03:52:06.323Z,4.35
2018-07-19T03:52:39.954Z,3.92
2018-07-19T03:53:14.231Z,3.90
2018-07-19T03:53:47.846Z,4.20
2018-07-19T03:54:22.068Z,4.58
2018-07-19T03:54:56.576Z,4.35
2018-07-19T03:55:30.197Z,4.58
2018-07-19T03:56:05.274Z,4.25
2018-07-19T03:56:38.835Z,4.75
2018-07-19T03:57:12.393Z,4.92
2018-07-19T03:57:45.967Z,4.15
2018-07-19T03:58:20.066Z,4.12
2018-07-19T03:58:54.393Z,4.47
2018-07-19T03:59:28.486Z,4.33
2018-07-19T04:00:02.426Z,4.10
2018-07-19T04:00:36.054Z,4.28
2018-07-19T04:01:09.765Z,4.45
2018-07-19T04:01:43.410Z,4.33
2018-07-19T04:02:18.452Z,4.80
2018-07-19T04:02:52.110Z,4.47
2018-07-19T04:03:25.711Z,4.40
2018-07-19T04:03:59.327Z,4.62
2018-07-19T04:04:33.513Z,4.33
2018-07-19T04:05:07.213Z,4.47
2018-07-19T04:05:41.440Z,5.15
2018-07-19T04:06:15.053Z,4.60
2018-07-19T04:06:48.646Z,4.50
2018-07-19T04:07:22.285Z,3.98
2018-07-19T04:07:57.479Z,4.80
2018-07-19T04:08:31.064Z,4.10
2018-07-19T04:09:07.121Z,4.30
2018-07-19T04:09:40.791Z,4.10
2018-07-19T04:10:14.375Z,4.25
2018-07-19T04:10:48.001Z,4.37
2018-07-19T04:11:22.047Z,4.07
2018-07-19T04:11:55.616Z,4.47
2018-07-19T04:12:29.196Z,4.47
2018-07-19T04:13:02.833Z,4.17
2018-07-19T04:13:36.387Z,4.47
2018-07-19T04:14:10.010Z,4.37
2018-07-19T04:14:43.626Z,4.53
2018-07-19T04:15:17.767Z,4.30
2018-07-19T04:15:51.348Z,4.17
2018-07-19T04:16:25.779Z,4.33
2018-07-19T04:16:59.433Z,3.83
2018-07-19T04:17:32.994Z,4.20
2018-07-19T04:18:06.632Z,4.67
2018-07-19T04:18:40.770Z,4.37
2018-07-19T04:19:14.992Z,4.53
2018-07-19T04:19:49.368Z,3.92
2018-07-19T04:20:24.204Z,4.03
2018-07-19T04:20:57.792Z,4.47
2018-07-19T04:21:31.486Z,4.28
2018-07-19T04:22:05.624Z,4.15
2018-07-19T04:22:39.813Z,3.95
2018-07-19T04:23:13.555Z,4.40
2018-07-19T04:23:47.203Z,4.50
2018-07-19T04:24:20.834Z,4.17
2018-07-19T04:24:55.348Z,4.30
2018-07-19T04:25:28.758Z,4.12
2018-07-19T04:26:02.819Z,3.90
2018-07-19T04:26:36.454Z,3.95
2018-07-19T04:27:11.000Z,4.15
2018-07-19T04:27:45.475Z,4.42
2018-07-19T04:28:19.020Z,4.03
2018-07-19T04:28:52.584Z,4.40
2018-07-19T04:29:26.180Z,4.57
2018-07-19T04:29:59.709Z,4.22
2018-07-19T04:30:34.106Z,4.10
2018-07-19T04:31:07.707Z,4.35
2018-07-19T04:31:41.300Z,4.60
2018-07-19T04:32:14.950Z,4.53
2018-07-19T04:32:49.035Z,4.03
2018-07-19T04:33:22.687Z,4.80
2018-07-19T04:33:56.950Z,4.50
2018-07-19T04:34:32.731Z,4.10
2018-07-19T04:35:07.316Z,4.37
2018-07-19T04:35:40.906Z,4.60
2018-07-19T04:36:14.488Z,4.50
2018-07-19T04:36:48.688Z,4.20
2018-07-19T04:37:22.284Z,4.40
2018-07-19T04:37:56.252Z,4.67
2018-07-19T04:38:29.857Z,4.05
2018-07-19T04:39:03.577Z,4.30
2018-07-19T04:39:37.156Z,4.40
2018-07-19T04:40:10.738Z,4.55
2018-07-19T04:40:44.258Z,4.50
2018-07-19T04:41:17.806Z,4.75
2018-07-19T04:41:51.436Z,4.50
2018-07-19T04:42:25.052Z,4.78
2018-07-19T04:42:58.655Z,4.30
2018-07-19T04:43:32.588Z,4.70
2018-07-19T04:44:06.410Z,4.65
2018-07-19T04:44:40.905Z,13.30
2018-07-19T04:45:14.495Z,5.37
2018-07-19T04:45:48.130Z,4.80
2018-07-19T04:46:21.773Z,7.42
2018-07-19T04:46:58.736Z,5.50
2018-07-19T04:47:32.358Z,14.55
2018-07-19T04:48:05.589Z,6.50
2018-07-19T04:48:39.198Z,5.50
2018-07-19T04:49:12.829Z,5.00
2018-07-19T04:49:47.031Z,5.10
2018-07-19T04:50:20.680Z,5.45
2018-07-19T04:50:54.201Z,4.75
2018-07-19T04:51:27.782Z,4.80
2018-07-19T04:52:02.095Z,5.10
2018-07-19T04:52:35.661Z,4.47
2018-07-19T04:53:10.174Z,4.08
2018-07-19T04:53:44.394Z,4.85
2018-07-19T04:54:18.745Z,4.67
2018-07-19T04:54:52.361Z,4.60
2018-07-19T04:55:25.956Z,4.00
2018-07-19T04:55:59.556Z,4.10
2018-07-19T04:56:32.792Z,4.50
2018-07-19T04:57:06.428Z,4.28
2018-07-19T04:57:40.178Z,4.05
2018-07-19T04:58:13.723Z,4.35
2018-07-19T04:58:47.828Z,4.10
2018-07-19T04:59:22.272Z,4.40
2018-07-19T04:59:56.599Z,4.30
2018-07-19T05:00:31.883Z,3.90
2018-07-19T05:01:05.827Z,4.35
2018-07-19T05:01:40.118Z,4.00
2018-07-19T05:02:13.641Z,4.25
2018-07-19T05:02:48.240Z,3.90
2018-07-19T05:03:21.969Z,3.87
2018-07-19T05:03:55.597Z,3.85
2018-07-19T05:04:29.179Z,3.67
2018-07-19T05:05:03.499Z,3.62
2018-07-19T05:05:37.190Z,3.60
2018-07-19T05:06:10.912Z,3.80
2018-07-19T05:06:44.492Z,3.30
2018-07-19T05:07:17.936Z,3.77
2018-07-19T05:07:51.558Z,4.10
2018-07-19T05:08:25.100Z,3.70
2018-07-19T05:08:58.657Z,3.33
2018-07-19T05:09:32.961Z,3.75
2018-07-19T05:10:06.614Z,3.67
2018-07-19T05:10:40.248Z,3.77
2018-07-19T05:11:13.850Z,3.62
2018-07-19T05:11:48.122Z,3.85
2018-07-19T05:12:21.672Z,4.25
2018-07-19T05:12:55.848Z,3.58
2018-07-19T05:13:29.410Z,3.90
2018-07-19T05:14:03.829Z,3.70
2018-07-19T05:14:37.968Z,3.83
2018-07-19T05:15:13.196Z,3.95
2018-07-19T05:15:46.760Z,4.00
2018-07-19T05:16:20.336Z,3.98
2018-07-19T05:16:54.020Z,3.80
2018-07-19T05:17:27.592Z,3.57
2018-07-19T05:18:03.160Z,3.70
2018-07-19T05:18:36.796Z,3.62
2018-07-19T05:19:10.439Z,4.10
2018-07-19T05:19:44.694Z,4.22
2018-07-19T05:20:18.246Z,3.90
2018-07-19T05:20:52.564Z,3.62
2018-07-19T05:21:26.154Z,3.20
2018-07-19T05:21:59.748Z,3.60
2018-07-19T05:22:33.855Z,3.50
2018-07-19T05:23:07.926Z,3.70
2018-07-19T05:23:41.514Z,4.08
2018-07-19T05:24:15.203Z,4.20
2018-07-19T05:24:48.753Z,3.80
2018-07-19T05:25:22.289Z,4.00
2018-07-19T05:25:55.943Z,3.83
2018-07-19T05:26:29.598Z,4.12
2018-07-19T05:27:03.241Z,3.83
2018-07-19T05:27:37.310Z,3.70
2018-07-19T05:28:10.905Z,3.80
2018-07-19T05:28:44.623Z,3.80
2018-07-19T05:29:18.288Z,4.00
2018-07-19T05:29:52.028Z,4.08
2018-07-19T05:30:25.671Z,4.08
2018-07-19T05:30:59.229Z,3.72
2018-07-19T05:31:32.821Z,4.30
2018-07-19T05:32:06.827Z,3.98
2018-07-19T05:32:40.571Z,4.30
2018-07-19T05:33:14.135Z,4.17
2018-07-19T05:33:47.712Z,4.05
2018-07-19T05:34:21.333Z,3.90
2018-07-19T05:34:55.690Z,4.03
2018-07-19T05:35:29.283Z,4.10
2018-07-19T05:36:02.870Z,4.75
2018-07-19T05:36:36.448Z,3.80
2018-07-19T05:37:10.057Z,3.85
2018-07-19T05:37:43.626Z,3.77
2018-07-19T05:38:17.207Z,3.80
2018-07-19T05:38:50.805Z,4.42
2018-07-19T05:39:25.090Z,4.20
2018-07-19T05:39:58.672Z,4.10
2018-07-19T05:40:32.449Z,4.42
2018-07-19T05:41:06.452Z,3.98
2018-07-19T05:41:40.075Z,4.08
2018-07-19T05:42:13.676Z,4.60
2018-07-19T05:42:48.175Z,4.25
2018-07-19T05:43:21.703Z,5.07
2018-07-19T05:43:55.888Z,4.70
2018-07-19T05:44:30.088Z,4.62
2018-07-19T05:45:03.803Z,5.20
2018-07-19T05:45:37.400Z,5.33
2018-07-19T05:46:10.989Z,4.45
2018-07-19T05:46:44.568Z,5.35
2018-07-19T05:47:18.811Z,4.80
2018-07-19T05:47:52.402Z,5.30
2018-07-19T05:48:25.963Z,5.55
2018-07-19T05:48:59.682Z,5.65
2018-07-19T05:49:33.280Z,6.87
2018-07-19T05:50:07.478Z,8.80
2018-07-19T05:50:41.078Z,7.83
2018-07-19T05:51:14.643Z,9.78
2018-07-19T05:51:48.836Z,8.88
2018-07-19T05:52:22.975Z,8.75
2018-07-19T05:52:58.031Z,8.00
2018-07-19T05:53:31.618Z,8.93
2018-07-19T05:54:06.164Z,8.85
2018-07-19T05:54:39.757Z,8.88
2018-07-19T05:55:13.447Z,8.25
2018-07-19T05:55:47.393Z,8.05
2018-07-19T05:56:20.622Z,7.58
2018-07-19T05:56:54.167Z,8.23
2018-07-19T05:57:27.770Z,7.67
2018-07-19T05:58:01.425Z,8.58
2018-07-19T05:58:35.002Z,8.30
2018-07-19T05:59:08.609Z,8.38
2018-07-19T05:59:42.660Z,7.80
2018-07-19T06:00:16.283Z,8.03
2018-07-19T06:00:49.948Z,8.93
2018-07-19T06:01:24.272Z,9.57
2018-07-19T06:01:57.852Z,10.13
2018-07-19T06:02:32.372Z,9.78
2018-07-19T06:03:06.300Z,10.38
2018-07-19T06:03:39.938Z,10.60
2018-07-19T06:04:13.975Z,9.93
2018-07-19T06:04:47.360Z,10.78
2018-07-19T06:05:21.065Z,10.70
2018-07-19T06:05:54.683Z,10.95
2018-07-19T06:06:28.315Z,10.63
2018-07-19T06:07:01.882Z,10.63
2018-07-19T06:07:35.447Z,10.72
2018-07-19T06:08:09.664Z,10.90
2018-07-19T06:08:43.255Z,10.35
2018-07-19T06:09:17.883Z,10.18
2018-07-19T06:09:52.801Z,10.82
2018-07-19T06:10:26.092Z,9.65
2018-07-19T06:10:59.748Z,10.40
2018-07-19T06:11:34.639Z,8.78
2018-07-19T06:12:08.693Z,9.00
2018-07-19T06:12:43.538Z,8.55
2018-07-19T06:13:17.603Z,8.55
2018-07-19T06:13:51.618Z,8.33
2018-07-19T06:14:25.357Z,9.13
2018-07-19T06:14:58.907Z,8.48
2018-07-19T06:15:32.649Z,8.03
2018-07-19T06:16:06.351Z,7.40
2018-07-19T06:16:40.012Z,7.17
2018-07-19T06:17:14.435Z,7.65
2018-07-19T06:17:48.006Z,7.60
2018-07-19T06:18:21.655Z,7.33
2018-07-19T06:18:55.312Z,7.10
2018-07-19T06:19:29.408Z,7.23
2018-07-19T06:20:03.051Z,6.67
2018-07-19T06:20:36.590Z,7.42
2018-07-19T06:21:11.083Z,7.15
2018-07-19T06:21:44.707Z,6.78
2018-07-19T06:22:18.377Z,7.12
2018-07-19T06:22:52.008Z,7.28
2018-07-19T06:23:26.331Z,7.00
2018-07-19T06:24:00.871Z,6.55
2018-07-19T06:24:34.476Z,7.05
2018-07-19T06:25:08.969Z,6.78
2018-07-19T06:25:42.556Z,6.85
2018-07-19T06:26:17.557Z,6.78
2018-07-19T06:26:51.905Z,6.70
2018-07-19T06:27:25.502Z,6.30
2018-07-19T06:28:00.491Z,6.70
2018-07-19T06:28:34.827Z,6.25
2018-07-19T06:29:08.418Z,6.20
2018-07-19T06:29:42.013Z,6.42
2018-07-19T06:30:15.629Z,6.90
2018-07-19T06:30:49.236Z,6.40
2018-07-19T06:31:23.348Z,7.00
2018-07-19T06:31:56.984Z,6.20
2018-07-19T06:32:30.648Z,6.60
2018-07-19T06:33:03.906Z,6.97
2018-07-19T06:33:37.537Z,7.00
2018-07-19T06:34:11.211Z,6.42
2018-07-19T06:34:45.452Z,6.95
2018-07-19T06:35:20.091Z,6.93
2018-07-19T06:35:54.026Z,6.15
2018-07-19T06:36:27.708Z,6.80
2018-07-19T06:37:01.403Z,7.00
2018-07-19T06:37:34.968Z,6.55
2018-07-19T06:38:08.567Z,6.92
2018-07-19T06:38:42.890Z,6.78
2018-07-19T06:39:16.508Z,6.00
2018-07-19T06:39:50.173Z,7.10
2018-07-19T06:40:23.788Z,6.65
2018-07-19T06:40:57.422Z,6.25
2018-07-19T06:41:31.185Z,7.10
2018-07-19T06:42:05.522Z,6.53
2018-07-19T06:42:39.124Z,6.65
2018-07-19T06:43:12.922Z,6.47
2018-07-19T06:43:46.476Z,6.25
2018-07-19T06:44:20.901Z,6.22
2018-07-19T06:44:56.513Z,6.72
2018-07-19T06:45:30.203Z,6.60
2018-07-19T06:46:03.848Z,5.95
2018-07-19T06:46:38.417Z,6.08
2018-07-19T06:47:13.559Z,6.48
2018-07-19T06:47:47.534Z,6.25
2018-07-19T06:48:21.175Z,6.33
2018-07-19T06:48:55.438Z,7.05
2018-07-19T06:49:29.647Z,6.20
2018-07-19T06:50:07.854Z,6.78
2018-07-19T06:50:44.021Z,6.42
2018-07-19T06:51:17.822Z,6.53
2018-07-19T06:51:51.938Z,6.78
2018-07-19T06:52:25.496Z,6.70
2018-07-19T06:52:59.556Z,6.65
2018-07-19T06:53:33.545Z,6.53
2018-07-19T06:54:08.441Z,6.72
2018-07-19T06:54:42.778Z,6.37
2018-07-19T06:55:16.973Z,6.37
2018-07-19T06:55:51.392Z,6.83
2018-07-19T06:56:26.162Z,6.50
2018-07-19T06:57:00.149Z,6.50
2018-07-19T06:57:33.844Z,6.70
2018-07-19T06:58:07.494Z,6.25
2018-07-19T06:58:41.788Z,6.08
2018-07-19T06:59:15.395Z,6.10
2018-07-19T06:59:49.010Z,5.67
2018-07-19T07:00:23.379Z,6.40
2018-07-19T07:00:57.720Z,6.40
2018-07-19T07:01:31.337Z,6.10
2018-07-19T07:02:05.846Z,5.60
2018-07-19T07:02:39.499Z,6.05
2018-07-19T07:03:13.741Z,5.50
2018-07-19T07:03:48.132Z,6.00
2018-07-19T07:04:22.616Z,5.87
2018-07-19T07:04:56.357Z,6.50
2018-07-19T07:05:29.941Z,6.30
2018-07-19T07:06:04.312Z,6.28
2018-07-19T07:06:38.777Z,6.67
2018-07-19T07:07:13.365Z,6.62
2018-07-19T07:07:47.030Z,5.97
2018-07-19T07:08:20.666Z,6.03
2018-07-19T07:08:54.301Z,5.47
2018-07-19T07:09:28.464Z,6.10
2018-07-19T07:10:03.444Z,6.40
2018-07-19T07:10:37.050Z,5.62
2018-07-19T07:11:11.536Z,6.47
2018-07-19T07:11:45.139Z,6.15
2018-07-19T07:12:19.480Z,6.00
2018-07-19T07:12:53.373Z,5.70
2018-07-19T07:13:27.082Z,6.30
2018-07-19T07:14:00.755Z,5.95
2018-07-19T07:14:34.399Z,5.53
2018-07-19T07:15:09.009Z,5.78
2018-07-19T07:15:42.680Z,6.17
2018-07-19T07:16:16.281Z,6.20
2018-07-19T07:16:49.845Z,6.28
2018-07-19T07:17:24.074Z,5.80
2018-07-19T07:17:57.625Z,6.15
2018-07-19T07:18:32.051Z,5.30
2018-07-19T07:19:06.183Z,5.97
2018-07-19T07:19:40.660Z,6.40
2018-07-19T07:20:14.328Z,5.58
2018-07-19T07:20:49.280Z,5.90
2018-07-19T07:21:23.306Z,6.13
2018-07-19T07:21:57.732Z,5.75
2018-07-19T07:22:31.316Z,5.70
2018-07-19T07:23:04.968Z,6.22
2018-07-19T07:23:38.533Z,5.95
2018-07-19T07:24:12.359Z,6.47
2018-07-19T07:24:46.007Z,6.20
2018-07-19T07:25:19.585Z,6.13
2018-07-19T07:25:54.875Z,6.25
2018-07-19T07:26:28.450Z,6.22
2018-07-19T07:27:02.070Z,5.80
2018-07-19T07:27:35.640Z,5.92
2018-07-19T07:28:09.812Z,5.72
2018-07-19T07:28:43.724Z,5.83
2018-07-19T07:29:17.365Z,5.53
2018-07-19T07:29:51.816Z,5.62
2018-07-19T07:30:25.460Z,6.33
2018-07-19T07:30:59.124Z,6.17